sensor_id;sensor_type;location;lat;lon;timestamp;temperature;humidity
37456;DHT22;23316;50.718;7.328;2022-07-21T00:02:07;22.60;55.70
37456;DHT22;23316;50.718;7.328;2022-07-21T00:04:34;22.70;55.80
37456;DHT22;23316;50.718;7.328;2022-07-21T00:07:02;22.70;55.90
37456;DHT22;23316;50.718;7.328;2022-07-21T00:09:29;22.70;56.20
37456;DHT22;23316;50.718;7.328;2022-07-21T00:11:57;22.70;56.20
37456;DHT22;23316;50.718;7.328;2022-07-21T00:14:26;22.70;56.60
37456;DHT22;23316;50.718;7.328;2022-07-21T00:16:53;22.70;56.80
37456;DHT22;23316;50.718;7.328;2022-07-21T00:19:21;22.70;56.60
37456;DHT22;23316;50.718;7.328;2022-07-21T00:21:48;22.70;56.90
37456;DHT22;23316;50.718;7.328;2022-07-21T00:24:16;22.70;57.20
37456;DHT22;23316;50.718;7.328;2022-07-21T00:26:43;22.60;57.10
37456;DHT22;23316;50.718;7.328;2022-07-21T00:29:11;22.60;57.10
37456;DHT22;23316;50.718;7.328;2022-07-21T00:31:40;22.60;57.30
37456;DHT22;23316;50.718;7.328;2022-07-21T00:34:07;22.60;57.40
37456;DHT22;23316;50.718;7.328;2022-07-21T00:36:35;22.60;57.40
37456;DHT22;23316;50.718;7.328;2022-07-21T00:39:02;22.60;57.50
37456;DHT22;23316;50.718;7.328;2022-07-21T00:41:30;22.60;57.60
37456;DHT22;23316;50.718;7.328;2022-07-21T00:43:57;22.60;57.70
37456;DHT22;23316;50.718;7.328;2022-07-21T00:46:25;22.70;57.70
37456;DHT22;23316;50.718;7.328;2022-07-21T00:48:53;22.70;57.70
37456;DHT22;23316;50.718;7.328;2022-07-21T00:51:21;22.70;57.80
37456;DHT22;23316;50.718;7.328;2022-07-21T00:53:48;22.70;57.70
37456;DHT22;23316;50.718;7.328;2022-07-21T00:56:16;22.70;57.60
37456;DHT22;23316;50.718;7.328;2022-07-21T00:58:44;22.70;57.70
37456;DHT22;23316;50.718;7.328;2022-07-21T01:01:12;22.80;57.70
37456;DHT22;23316;50.718;7.328;2022-07-21T01:03:39;22.80;57.80
37456;DHT22;23316;50.718;7.328;2022-07-21T01:06:08;22.80;57.90
37456;DHT22;23316;50.718;7.328;2022-07-21T01:08:36;22.80;58.00
37456;DHT22;23316;50.718;7.328;2022-07-21T01:11:03;22.80;57.80
37456;DHT22;23316;50.718;7.328;2022-07-21T01:13:31;22.80;57.80
37456;DHT22;23316;50.718;7.328;2022-07-21T01:15:58;22.90;57.90
37456;DHT22;23316;50.718;7.328;2022-07-21T01:18:26;22.80;57.80
37456;DHT22;23316;50.718;7.328;2022-07-21T01:20:55;22.90;57.90
37456;DHT22;23316;50.718;7.328;2022-07-21T01:23:24;22.80;57.80
37456;DHT22;23316;50.718;7.328;2022-07-21T01:25:51;22.80;57.80
37456;DHT22;23316;50.718;7.328;2022-07-21T01:28:19;22.90;57.80
37456;DHT22;23316;50.718;7.328;2022-07-21T01:30:46;22.80;57.70
37456;DHT22;23316;50.718;7.328;2022-07-21T01:33:14;22.90;57.70
37456;DHT22;23316;50.718;7.328;2022-07-21T01:35:41;22.80;57.70
37456;DHT22;23316;50.718;7.328;2022-07-21T01:38:10;22.80;57.90
37456;DHT22;23316;50.718;7.328;2022-07-21T01:40:57;22.80;57.90
37456;DHT22;23316;50.718;7.328;2022-07-21T01:43:42;22.90;58.20
37456;DHT22;23316;50.718;7.328;2022-07-21T01:46:11;22.80;57.90
37456;DHT22;23316;50.718;7.328;2022-07-21T01:48:41;22.80;58.00
37456;DHT22;23316;50.718;7.328;2022-07-21T01:51:09;22.90;58.10
37456;DHT22;23316;50.718;7.328;2022-07-21T01:53:37;22.90;58.00
37456;DHT22;23316;50.718;7.328;2022-07-21T01:56:07;22.80;58.10
37456;DHT22;23316;50.718;7.328;2022-07-21T01:58:35;22.80;58.20
37456;DHT22;23316;50.718;7.328;2022-07-21T02:01:02;22.80;58.20
37456;DHT22;23316;50.718;7.328;2022-07-21T02:03:30;22.80;58.20
37456;DHT22;23316;50.718;7.328;2022-07-21T02:06:00;22.80;58.20
37456;DHT22;23316;50.718;7.328;2022-07-21T02:08:28;22.80;58.30
37456;DHT22;23316;50.718;7.328;2022-07-21T02:10:56;22.80;58.20
37456;DHT22;23316;50.718;7.328;2022-07-21T02:13:25;22.80;58.20
37456;DHT22;23316;50.718;7.328;2022-07-21T02:15:52;22.80;58.30
37456;DHT22;23316;50.718;7.328;2022-07-21T02:18:20;22.80;58.30
37456;DHT22;23316;50.718;7.328;2022-07-21T02:20:48;22.80;58.20
37456;DHT22;23316;50.718;7.328;2022-07-21T02:23:16;22.80;58.20
37456;DHT22;23316;50.718;7.328;2022-07-21T02:25:44;22.80;58.30
37456;DHT22;23316;50.718;7.328;2022-07-21T02:28:12;22.80;58.30
37456;DHT22;23316;50.718;7.328;2022-07-21T02:30:41;22.80;58.30
37456;DHT22;23316;50.718;7.328;2022-07-21T02:33:09;22.80;58.40
37456;DHT22;23316;50.718;7.328;2022-07-21T02:35:36;22.80;58.30
37456;DHT22;23316;50.718;7.328;2022-07-21T02:38:04;22.80;58.30
37456;DHT22;23316;50.718;7.328;2022-07-21T02:40:32;22.70;58.20
37456;DHT22;23316;50.718;7.328;2022-07-21T02:42:59;22.70;58.20
37456;DHT22;23316;50.718;7.328;2022-07-21T02:45:27;22.60;58.20
37456;DHT22;23316;50.718;7.328;2022-07-21T02:47:57;22.60;58.30
37456;DHT22;23316;50.718;7.328;2022-07-21T02:50:26;22.60;58.50
37456;DHT22;23316;50.718;7.328;2022-07-21T02:52:55;22.60;58.60
37456;DHT22;23316;50.718;7.328;2022-07-21T02:55:23;22.60;58.60
37456;DHT22;23316;50.718;7.328;2022-07-21T02:58:03;22.50;58.70
37456;DHT22;23316;50.718;7.328;2022-07-21T03:00:30;22.50;59.00
37456;DHT22;23316;50.718;7.328;2022-07-21T03:02:59;22.60;58.90
37456;DHT22;23316;50.718;7.328;2022-07-21T03:05:27;22.60;59.00
37456;DHT22;23316;50.718;7.328;2022-07-21T03:07:54;22.60;58.90
37456;DHT22;23316;50.718;7.328;2022-07-21T03:10:22;22.50;58.90
37456;DHT22;23316;50.718;7.328;2022-07-21T03:12:49;22.60;59.00
37456;DHT22;23316;50.718;7.328;2022-07-21T03:15:17;22.60;59.00
37456;DHT22;23316;50.718;7.328;2022-07-21T03:17:44;22.60;59.10
37456;DHT22;23316;50.718;7.328;2022-07-21T03:20:14;22.60;59.00
37456;DHT22;23316;50.718;7.328;2022-07-21T03:22:42;22.60;59.10
37456;DHT22;23316;50.718;7.328;2022-07-21T03:25:10;22.60;59.00
37456;DHT22;23316;50.718;7.328;2022-07-21T03:27:38;22.60;59.00
37456;DHT22;23316;50.718;7.328;2022-07-21T03:30:08;22.50;58.90
37456;DHT22;23316;50.718;7.328;2022-07-21T03:32:35;22.60;58.90
37456;DHT22;23316;50.718;7.328;2022-07-21T03:35:04;22.60;58.90
37456;DHT22;23316;50.718;7.328;2022-07-21T03:37:39;22.50;58.80
37456;DHT22;23316;50.718;7.328;2022-07-21T03:40:08;22.50;58.80
37456;DHT22;23316;50.718;7.328;2022-07-21T03:42:35;22.50;58.70
37456;DHT22;23316;50.718;7.328;2022-07-21T03:45:04;22.50;58.70
37456;DHT22;23316;50.718;7.328;2022-07-21T03:47:31;22.50;58.80
37456;DHT22;23316;50.718;7.328;2022-07-21T03:49:59;22.50;58.80
37456;DHT22;23316;50.718;7.328;2022-07-21T03:52:26;22.50;58.90
37456;DHT22;23316;50.718;7.328;2022-07-21T03:54:55;22.50;59.00
37456;DHT22;23316;50.718;7.328;2022-07-21T03:57:35;22.50;59.10
37456;DHT22;23316;50.718;7.328;2022-07-21T04:00:05;22.50;59.10
37456;DHT22;23316;50.718;7.328;2022-07-21T04:02:33;22.50;59.10
37456;DHT22;23316;50.718;7.328;2022-07-21T04:05:00;22.50;59.10
37456;DHT22;23316;50.718;7.328;2022-07-21T04:07:28;22.50;59.00
37456;DHT22;23316;50.718;7.328;2022-07-21T04:09:57;22.50;59.00
37456;DHT22;23316;50.718;7.328;2022-07-21T04:12:25;22.50;59.10
37456;DHT22;23316;50.718;7.328;2022-07-21T04:14:53;22.40;59.00
37456;DHT22;23316;50.718;7.328;2022-07-21T04:17:21;22.50;58.90
37456;DHT22;23316;50.718;7.328;2022-07-21T04:19:49;22.40;58.80
37456;DHT22;23316;50.718;7.328;2022-07-21T04:22:17;22.40;58.70
37456;DHT22;23316;50.718;7.328;2022-07-21T04:24:45;22.40;58.70
37456;DHT22;23316;50.718;7.328;2022-07-21T04:27:14;22.40;58.70
37456;DHT22;23316;50.718;7.328;2022-07-21T04:29:42;22.40;58.80
37456;DHT22;23316;50.718;7.328;2022-07-21T04:32:10;22.30;58.70
37456;DHT22;23316;50.718;7.328;2022-07-21T04:34:38;22.30;58.70
37456;DHT22;23316;50.718;7.328;2022-07-21T04:37:05;22.30;58.80
37456;DHT22;23316;50.718;7.328;2022-07-21T04:39:33;22.30;58.70
37456;DHT22;23316;50.718;7.328;2022-07-21T04:42:00;22.30;58.80
37456;DHT22;23316;50.718;7.328;2022-07-21T04:44:32;22.30;58.80
37456;DHT22;23316;50.718;7.328;2022-07-21T04:47:03;22.20;58.80
37456;DHT22;23316;50.718;7.328;2022-07-21T04:49:33;22.20;58.80
37456;DHT22;23316;50.718;7.328;2022-07-21T04:52:00;22.20;58.80
37456;DHT22;23316;50.718;7.328;2022-07-21T04:54:28;22.20;58.90
37456;DHT22;23316;50.718;7.328;2022-07-21T04:56:55;22.20;59.10
37456;DHT22;23316;50.718;7.328;2022-07-21T04:59:23;22.20;59.20
37456;DHT22;23316;50.718;7.328;2022-07-21T05:01:55;22.20;59.40
37456;DHT22;23316;50.718;7.328;2022-07-21T05:04:22;22.20;59.60
37456;DHT22;23316;50.718;7.328;2022-07-21T05:06:50;22.20;59.60
37456;DHT22;23316;50.718;7.328;2022-07-21T05:09:17;22.20;59.60
37456;DHT22;23316;50.718;7.328;2022-07-21T05:11:45;22.30;59.70
37456;DHT22;23316;50.718;7.328;2022-07-21T05:14:13;22.30;59.80
37456;DHT22;23316;50.718;7.328;2022-07-21T05:16:40;22.30;59.90
37456;DHT22;23316;50.718;7.328;2022-07-21T05:19:09;22.30;60.00
37456;DHT22;23316;50.718;7.328;2022-07-21T05:21:37;22.30;60.20
37456;DHT22;23316;50.718;7.328;2022-07-21T05:24:05;22.30;60.20
37456;DHT22;23316;50.718;7.328;2022-07-21T05:26:32;22.40;60.30
37456;DHT22;23316;50.718;7.328;2022-07-21T05:29:00;22.40;60.30
37456;DHT22;23316;50.718;7.328;2022-07-21T05:31:27;22.40;60.60
37456;DHT22;23316;50.718;7.328;2022-07-21T05:33:55;22.40;60.60
37456;DHT22;23316;50.718;7.328;2022-07-21T05:36:24;22.50;60.80
37456;DHT22;23316;50.718;7.328;2022-07-21T05:38:51;22.50;61.10
37456;DHT22;23316;50.718;7.328;2022-07-21T05:41:19;22.50;61.30
37456;DHT22;23316;50.718;7.328;2022-07-21T05:43:47;22.50;61.20
37456;DHT22;23316;50.718;7.328;2022-07-21T05:46:15;22.60;61.20
37456;DHT22;23316;50.718;7.328;2022-07-21T05:48:42;22.60;61.00
37456;DHT22;23316;50.718;7.328;2022-07-21T05:51:10;22.60;60.90
37456;DHT22;23316;50.718;7.328;2022-07-21T05:53:42;22.70;60.70
37456;DHT22;23316;50.718;7.328;2022-07-21T05:56:09;22.70;60.50
37456;DHT22;23316;50.718;7.328;2022-07-21T05:58:36;22.70;60.40
37456;DHT22;23316;50.718;7.328;2022-07-21T06:01:04;22.80;60.40
37456;DHT22;23316;50.718;7.328;2022-07-21T06:03:35;22.70;60.10
37456;DHT22;23316;50.718;7.328;2022-07-21T06:06:03;22.70;60.00
37456;DHT22;23316;50.718;7.328;2022-07-21T06:08:31;22.80;60.00
37456;DHT22;23316;50.718;7.328;2022-07-21T06:11:00;22.80;59.90
37456;DHT22;23316;50.718;7.328;2022-07-21T06:13:27;22.80;60.00
37456;DHT22;23316;50.718;7.328;2022-07-21T06:15:55;22.70;59.90
37456;DHT22;23316;50.718;7.328;2022-07-21T06:18:22;22.80;59.80
37456;DHT22;23316;50.718;7.328;2022-07-21T06:20:50;22.80;59.90
37456;DHT22;23316;50.718;7.328;2022-07-21T06:23:18;22.70;59.90
37456;DHT22;23316;50.718;7.328;2022-07-21T06:25:45;22.70;59.80
37456;DHT22;23316;50.718;7.328;2022-07-21T06:28:14;22.70;59.80
37456;DHT22;23316;50.718;7.328;2022-07-21T06:30:42;22.70;59.90
37456;DHT22;23316;50.718;7.328;2022-07-21T06:33:09;22.70;59.90
37456;DHT22;23316;50.718;7.328;2022-07-21T06:35:37;22.70;59.90
37456;DHT22;23316;50.718;7.328;2022-07-21T06:38:05;22.70;60.00
37456;DHT22;23316;50.718;7.328;2022-07-21T06:40:32;22.60;60.00
37456;DHT22;23316;50.718;7.328;2022-07-21T06:43:00;22.60;60.30
37456;DHT22;23316;50.718;7.328;2022-07-21T06:45:29;22.60;60.10
37456;DHT22;23316;50.718;7.328;2022-07-21T06:48:02;22.60;60.20
37456;DHT22;23316;50.718;7.328;2022-07-21T06:50:30;22.60;60.40
37456;DHT22;23316;50.718;7.328;2022-07-21T06:53:00;22.60;60.40
37456;DHT22;23316;50.718;7.328;2022-07-21T06:55:28;22.60;60.60
37456;DHT22;23316;50.718;7.328;2022-07-21T06:57:56;22.60;60.60
37456;DHT22;23316;50.718;7.328;2022-07-21T07:00:23;22.60;60.80
37456;DHT22;23316;50.718;7.328;2022-07-21T07:02:52;22.60;61.00
37456;DHT22;23316;50.718;7.328;2022-07-21T07:05:19;22.60;61.40
37456;DHT22;23316;50.718;7.328;2022-07-21T07:07:47;22.60;61.40
37456;DHT22;23316;50.718;7.328;2022-07-21T07:10:15;22.60;61.50
37456;DHT22;23316;50.718;7.328;2022-07-21T07:12:42;22.70;61.80
37456;DHT22;23316;50.718;7.328;2022-07-21T07:15:10;22.70;61.90
37456;DHT22;23316;50.718;7.328;2022-07-21T07:17:38;22.70;61.90
37456;DHT22;23316;50.718;7.328;2022-07-21T07:20:11;22.80;61.80
37456;DHT22;23316;50.718;7.328;2022-07-21T07:22:41;22.80;62.00
37456;DHT22;23316;50.718;7.328;2022-07-21T07:25:11;22.80;62.00
37456;DHT22;23316;50.718;7.328;2022-07-21T07:27:47;22.90;62.60
37456;DHT22;23316;50.718;7.328;2022-07-21T07:30:16;23.00;62.10
37456;DHT22;23316;50.718;7.328;2022-07-21T07:32:44;23.00;61.80
37456;DHT22;23316;50.718;7.328;2022-07-21T07:35:15;23.00;62.20
37456;DHT22;23316;50.718;7.328;2022-07-21T07:37:45;23.10;62.70
37456;DHT22;23316;50.718;7.328;2022-07-21T07:40:14;23.10;62.70
37456;DHT22;23316;50.718;7.328;2022-07-21T07:42:42;23.20;62.60
37456;DHT22;23316;50.718;7.328;2022-07-21T07:45:13;23.20;62.40
37456;DHT22;23316;50.718;7.328;2022-07-21T07:47:41;23.30;62.40
37456;DHT22;23316;50.718;7.328;2022-07-21T07:50:15;23.30;62.00
37456;DHT22;23316;50.718;7.328;2022-07-21T07:52:45;23.30;61.80
37456;DHT22;23316;50.718;7.328;2022-07-21T07:55:12;23.40;61.60
37456;DHT22;23316;50.718;7.328;2022-07-21T07:57:41;23.40;61.80
37456;DHT22;23316;50.718;7.328;2022-07-21T08:00:11;23.40;61.80
37456;DHT22;23316;50.718;7.328;2022-07-21T08:02:39;23.50;61.80
37456;DHT22;23316;50.718;7.328;2022-07-21T08:05:09;23.50;61.60
37456;DHT22;23316;50.718;7.328;2022-07-21T08:07:39;23.50;61.70
37456;DHT22;23316;50.718;7.328;2022-07-21T08:10:08;23.60;61.60
37456;DHT22;23316;50.718;7.328;2022-07-21T08:12:35;23.60;62.30
37456;DHT22;23316;50.718;7.328;2022-07-21T08:15:04;23.60;61.40
37456;DHT22;23316;50.718;7.328;2022-07-21T08:17:32;23.60;60.90
37456;DHT22;23316;50.718;7.328;2022-07-21T08:19:59;23.70;61.00
37456;DHT22;23316;50.718;7.328;2022-07-21T08:22:30;23.70;61.00
37456;DHT22;23316;50.718;7.328;2022-07-21T08:24:58;23.70;60.90
37456;DHT22;23316;50.718;7.328;2022-07-21T08:27:26;23.70;60.70
37456;DHT22;23316;50.718;7.328;2022-07-21T08:29:53;23.80;61.30
37456;DHT22;23316;50.718;7.328;2022-07-21T08:32:21;23.80;61.00
37456;DHT22;23316;50.718;7.328;2022-07-21T08:34:51;23.90;60.20
37456;DHT22;23316;50.718;7.328;2022-07-21T08:37:19;23.90;59.90
37456;DHT22;23316;50.718;7.328;2022-07-21T08:39:47;23.90;59.60
37456;DHT22;23316;50.718;7.328;2022-07-21T08:42:16;24.00;59.50
37456;DHT22;23316;50.718;7.328;2022-07-21T08:44:44;24.00;59.50
37456;DHT22;23316;50.718;7.328;2022-07-21T08:47:11;24.00;59.60
37456;DHT22;23316;50.718;7.328;2022-07-21T08:49:39;24.00;59.40
37456;DHT22;23316;50.718;7.328;2022-07-21T08:52:09;24.00;60.00
37456;DHT22;23316;50.718;7.328;2022-07-21T08:54:40;24.00;59.40
37456;DHT22;23316;50.718;7.328;2022-07-21T08:57:11;24.10;59.30
37456;DHT22;23316;50.718;7.328;2022-07-21T08:59:43;24.10;59.60
37456;DHT22;23316;50.718;7.328;2022-07-21T09:02:26;24.10;59.10
37456;DHT22;23316;50.718;7.328;2022-07-21T09:04:54;24.20;58.80
37456;DHT22;23316;50.718;7.328;2022-07-21T09:07:24;24.20;58.70
37456;DHT22;23316;50.718;7.328;2022-07-21T09:09:56;24.20;58.50
37456;DHT22;23316;50.718;7.328;2022-07-21T09:12:29;24.30;58.00
37456;DHT22;23316;50.718;7.328;2022-07-21T09:15:15;24.40;58.00
37456;DHT22;23316;50.718;7.328;2022-07-21T09:17:45;24.50;57.70
37456;DHT22;23316;50.718;7.328;2022-07-21T09:20:24;24.50;56.90
37456;DHT22;23316;50.718;7.328;2022-07-21T09:23:09;24.50;56.20
37456;DHT22;23316;50.718;7.328;2022-07-21T09:25:41;24.50;56.40
37456;DHT22;23316;50.718;7.328;2022-07-21T09:28:14;24.60;56.10
37456;DHT22;23316;50.718;7.328;2022-07-21T09:31:02;24.60;55.70
37456;DHT22;23316;50.718;7.328;2022-07-21T09:33:39;24.60;55.10
37456;DHT22;23316;50.718;7.328;2022-07-21T09:36:13;24.70;54.90
37456;DHT22;23316;50.718;7.328;2022-07-21T09:38:45;24.60;54.70
37456;DHT22;23316;50.718;7.328;2022-07-21T09:41:20;24.70;55.00
37456;DHT22;23316;50.718;7.328;2022-07-21T09:43:51;24.70;55.20
37456;DHT22;23316;50.718;7.328;2022-07-21T09:46:29;24.70;55.30
37456;DHT22;23316;50.718;7.328;2022-07-21T09:49:09;24.70;55.80
37456;DHT22;23316;50.718;7.328;2022-07-21T09:51:40;24.80;55.10
37456;DHT22;23316;50.718;7.328;2022-07-21T09:54:23;24.80;54.50
37456;DHT22;23316;50.718;7.328;2022-07-21T09:57:00;24.90;54.50
37456;DHT22;23316;50.718;7.328;2022-07-21T09:59:33;24.90;54.20
37456;DHT22;23316;50.718;7.328;2022-07-21T10:02:03;24.90;54.20
37456;DHT22;23316;50.718;7.328;2022-07-21T10:04:37;24.90;53.70
37456;DHT22;23316;50.718;7.328;2022-07-21T10:07:05;25.00;53.20
37456;DHT22;23316;50.718;7.328;2022-07-21T10:09:33;25.00;53.40
37456;DHT22;23316;50.718;7.328;2022-07-21T10:12:01;25.00;53.30
37456;DHT22;23316;50.718;7.328;2022-07-21T10:14:29;25.00;53.40
37456;DHT22;23316;50.718;7.328;2022-07-21T10:16:59;25.00;53.10
37456;DHT22;23316;50.718;7.328;2022-07-21T10:19:38;25.10;52.90
37456;DHT22;23316;50.718;7.328;2022-07-21T10:22:12;25.10;52.60
37456;DHT22;23316;50.718;7.328;2022-07-21T10:24:46;25.10;53.00
37456;DHT22;23316;50.718;7.328;2022-07-21T10:27:15;25.20;53.20
37456;DHT22;23316;50.718;7.328;2022-07-21T10:29:57;25.30;52.60
37456;DHT22;23316;50.718;7.328;2022-07-21T10:32:29;25.30;52.30
37456;DHT22;23316;50.718;7.328;2022-07-21T10:35:02;25.40;52.00
37456;DHT22;23316;50.718;7.328;2022-07-21T10:37:44;25.40;51.60
37456;DHT22;23316;50.718;7.328;2022-07-21T10:40:34;25.50;51.70
37456;DHT22;23316;50.718;7.328;2022-07-21T10:43:39;25.50;51.30
37456;DHT22;23316;50.718;7.328;2022-07-21T10:46:32;25.60;51.10
37456;DHT22;23316;50.718;7.328;2022-07-21T10:49:01;25.70;51.20
37456;DHT22;23316;50.718;7.328;2022-07-21T10:51:31;25.70;50.70
37456;DHT22;23316;50.718;7.328;2022-07-21T10:54:19;25.80;50.10
37456;DHT22;23316;50.718;7.328;2022-07-21T10:57:24;25.80;49.50
37456;DHT22;23316;50.718;7.328;2022-07-21T11:00:20;25.90;49.40
37456;DHT22;23316;50.718;7.328;2022-07-21T11:02:51;26.00;48.90
37456;DHT22;23316;50.718;7.328;2022-07-21T11:05:20;26.00;48.30
37456;DHT22;23316;50.718;7.328;2022-07-21T11:08:17;26.00;48.50
37456;DHT22;23316;50.718;7.328;2022-07-21T11:10:47;26.00;48.50
37456;DHT22;23316;50.718;7.328;2022-07-21T11:13:16;26.10;48.30
37456;DHT22;23316;50.718;7.328;2022-07-21T11:15:46;26.10;48.30
37456;DHT22;23316;50.718;7.328;2022-07-21T11:18:16;26.10;47.90
37456;DHT22;23316;50.718;7.328;2022-07-21T11:20:44;26.10;47.60
37456;DHT22;23316;50.718;7.328;2022-07-21T11:23:36;26.10;47.80
37456;DHT22;23316;50.718;7.328;2022-07-21T11:26:04;26.20;47.50
37456;DHT22;23316;50.718;7.328;2022-07-21T11:28:31;26.20;47.70
37456;DHT22;23316;50.718;7.328;2022-07-21T11:31:16;26.20;47.60
37456;DHT22;23316;50.718;7.328;2022-07-21T11:33:46;26.20;47.80
37456;DHT22;23316;50.718;7.328;2022-07-21T11:36:27;26.20;47.70
37456;DHT22;23316;50.718;7.328;2022-07-21T11:39:05;26.20;47.40
37456;DHT22;23316;50.718;7.328;2022-07-21T11:41:33;26.20;47.10
37456;DHT22;23316;50.718;7.328;2022-07-21T11:44:02;26.30;47.40
37456;DHT22;23316;50.718;7.328;2022-07-21T11:46:44;26.20;47.40
37456;DHT22;23316;50.718;7.328;2022-07-21T11:49:12;26.20;47.80
37456;DHT22;23316;50.718;7.328;2022-07-21T11:51:46;26.30;48.40
37456;DHT22;23316;50.718;7.328;2022-07-21T11:54:23;26.30;47.50
37456;DHT22;23316;50.718;7.328;2022-07-21T11:56:51;26.30;47.20
37456;DHT22;23316;50.718;7.328;2022-07-21T11:59:19;26.30;46.90
37456;DHT22;23316;50.718;7.328;2022-07-21T12:01:51;26.30;47.00
37456;DHT22;23316;50.718;7.328;2022-07-21T12:04:37;26.30;46.20
37456;DHT22;23316;50.718;7.328;2022-07-21T12:07:07;26.30;47.00
37456;DHT22;23316;50.718;7.328;2022-07-21T12:09:40;26.30;46.90
37456;DHT22;23316;50.718;7.328;2022-07-21T12:12:08;26.20;46.40
37456;DHT22;23316;50.718;7.328;2022-07-21T12:14:43;26.20;46.40
37456;DHT22;23316;50.718;7.328;2022-07-21T12:17:11;26.20;46.30
37456;DHT22;23316;50.718;7.328;2022-07-21T12:19:39;26.10;46.70
37456;DHT22;23316;50.718;7.328;2022-07-21T12:22:06;26.00;47.20
37456;DHT22;23316;50.718;7.328;2022-07-21T12:24:53;25.90;47.80
37456;DHT22;23316;50.718;7.328;2022-07-21T12:27:21;25.70;49.40
37456;DHT22;23316;50.718;7.328;2022-07-21T12:29:49;25.60;50.00
37456;DHT22;23316;50.718;7.328;2022-07-21T12:32:46;25.40;50.60
37456;DHT22;23316;50.718;7.328;2022-07-21T12:35:27;25.10;51.10
37456;DHT22;23316;50.718;7.328;2022-07-21T12:38:00;24.80;52.00
37456;DHT22;23316;50.718;7.328;2022-07-21T12:40:30;24.60;52.60
37456;DHT22;23316;50.718;7.328;2022-07-21T12:43:16;24.40;53.30
37456;DHT22;23316;50.718;7.328;2022-07-21T12:45:52;24.20;54.00
37456;DHT22;23316;50.718;7.328;2022-07-21T12:48:22;24.10;54.50
37456;DHT22;23316;50.718;7.328;2022-07-21T12:51:06;23.90;54.60
37456;DHT22;23316;50.718;7.328;2022-07-21T12:53:37;23.70;55.20
37456;DHT22;23316;50.718;7.328;2022-07-21T12:56:06;23.60;55.40
37456;DHT22;23316;50.718;7.328;2022-07-21T12:58:34;23.50;55.90
37456;DHT22;23316;50.718;7.328;2022-07-21T13:01:03;23.50;56.20
37456;DHT22;23316;50.718;7.328;2022-07-21T13:03:31;23.40;56.40
37456;DHT22;23316;50.718;7.328;2022-07-21T13:06:00;23.40;57.20
37456;DHT22;23316;50.718;7.328;2022-07-21T13:08:28;23.40;56.90
37456;DHT22;23316;50.718;7.328;2022-07-21T13:10:56;23.40;57.10
37456;DHT22;23316;50.718;7.328;2022-07-21T13:13:26;23.40;57.40
37456;DHT22;23316;50.718;7.328;2022-07-21T13:15:54;23.40;57.60
37456;DHT22;23316;50.718;7.328;2022-07-21T13:18:22;23.50;57.90
37456;DHT22;23316;50.718;7.328;2022-07-21T13:20:49;23.50;57.90
37456;DHT22;23316;50.718;7.328;2022-07-21T13:23:17;23.50;57.90
37456;DHT22;23316;50.718;7.328;2022-07-21T13:25:45;23.60;57.90
37456;DHT22;23316;50.718;7.328;2022-07-21T13:28:14;23.60;58.00
37456;DHT22;23316;50.718;7.328;2022-07-21T13:30:44;23.70;57.90
37456;DHT22;23316;50.718;7.328;2022-07-21T13:33:12;23.70;57.80
37456;DHT22;23316;50.718;7.328;2022-07-21T13:35:40;23.70;57.80
37456;DHT22;23316;50.718;7.328;2022-07-21T13:38:07;23.70;58.00
37456;DHT22;23316;50.718;7.328;2022-07-21T13:40:35;23.80;58.20
37456;DHT22;23316;50.718;7.328;2022-07-21T13:43:03;23.70;58.40
37456;DHT22;23316;50.718;7.328;2022-07-21T13:45:31;23.60;58.40
37456;DHT22;23316;50.718;7.328;2022-07-21T13:48:06;23.50;58.60
37456;DHT22;23316;50.718;7.328;2022-07-21T13:50:36;23.40;59.20
37456;DHT22;23316;50.718;7.328;2022-07-21T13:53:04;23.20;59.20
37456;DHT22;23316;50.718;7.328;2022-07-21T13:55:31;23.10;59.70
37456;DHT22;23316;50.718;7.328;2022-07-21T13:57:59;23.00;60.30
37456;DHT22;23316;50.718;7.328;2022-07-21T14:00:26;22.80;60.80
37456;DHT22;23316;50.718;7.328;2022-07-21T14:02:54;22.70;61.70
37456;DHT22;23316;50.718;7.328;2022-07-21T14:05:23;22.60;62.90
37456;DHT22;23316;50.718;7.328;2022-07-21T14:07:51;22.50;63.60
37456;DHT22;23316;50.718;7.328;2022-07-21T14:10:25;22.40;64.20
37456;DHT22;23316;50.718;7.328;2022-07-21T14:12:52;22.40;64.60
37456;DHT22;23316;50.718;7.328;2022-07-21T14:15:20;22.30;65.00
37456;DHT22;23316;50.718;7.328;2022-07-21T14:17:47;22.30;65.70
37456;DHT22;23316;50.718;7.328;2022-07-21T14:20:17;22.20;65.60
37456;DHT22;23316;50.718;7.328;2022-07-21T14:22:46;22.20;65.70
37456;DHT22;23316;50.718;7.328;2022-07-21T14:25:14;22.20;65.90
37456;DHT22;23316;50.718;7.328;2022-07-21T14:27:49;22.20;66.20
37456;DHT22;23316;50.718;7.328;2022-07-21T14:30:17;22.20;66.30
37456;DHT22;23316;50.718;7.328;2022-07-21T14:32:46;22.20;66.80
37456;DHT22;23316;50.718;7.328;2022-07-21T14:35:14;22.20;66.70
37456;DHT22;23316;50.718;7.328;2022-07-21T14:37:43;22.20;66.60
37456;DHT22;23316;50.718;7.328;2022-07-21T14:40:18;22.20;66.60
37456;DHT22;23316;50.718;7.328;2022-07-21T14:42:46;22.30;66.70
37456;DHT22;23316;50.718;7.328;2022-07-21T14:45:14;22.30;66.50
37456;DHT22;23316;50.718;7.328;2022-07-21T14:47:45;22.40;66.30
37456;DHT22;23316;50.718;7.328;2022-07-21T14:50:15;22.40;66.00
37456;DHT22;23316;50.718;7.328;2022-07-21T14:52:43;22.40;65.60
37456;DHT22;23316;50.718;7.328;2022-07-21T14:55:11;22.50;65.30
37456;DHT22;23316;50.718;7.328;2022-07-21T14:57:40;22.50;64.90
37456;DHT22;23316;50.718;7.328;2022-07-21T15:00:11;22.50;64.80
37456;DHT22;23316;50.718;7.328;2022-07-21T15:02:39;22.50;64.40
37456;DHT22;23316;50.718;7.328;2022-07-21T15:05:07;22.60;64.70
37456;DHT22;23316;50.718;7.328;2022-07-21T15:07:37;22.60;64.80
37456;DHT22;23316;50.718;7.328;2022-07-21T15:10:06;22.50;64.70
37456;DHT22;23316;50.718;7.328;2022-07-21T15:12:37;22.50;65.00
37456;DHT22;23316;50.718;7.328;2022-07-21T15:15:12;22.40;64.90
37456;DHT22;23316;50.718;7.328;2022-07-21T15:17:42;22.20;65.20
37456;DHT22;23316;50.718;7.328;2022-07-21T15:20:13;22.10;65.40
37456;DHT22;23316;50.718;7.328;2022-07-21T15:22:40;22.00;65.70
37456;DHT22;23316;50.718;7.328;2022-07-21T15:25:09;21.90;65.90
37456;DHT22;23316;50.718;7.328;2022-07-21T15:27:38;21.90;66.50
37456;DHT22;23316;50.718;7.328;2022-07-21T15:30:13;21.80;66.60
37456;DHT22;23316;50.718;7.328;2022-07-21T15:32:41;21.70;66.60
37456;DHT22;23316;50.718;7.328;2022-07-21T15:35:09;21.70;66.60
37456;DHT22;23316;50.718;7.328;2022-07-21T15:37:38;21.60;66.70
37456;DHT22;23316;50.718;7.328;2022-07-21T15:40:06;21.60;66.90
37456;DHT22;23316;50.718;7.328;2022-07-21T15:42:39;21.50;67.10
37456;DHT22;23316;50.718;7.328;2022-07-21T15:45:09;21.40;67.30
37456;DHT22;23316;50.718;7.328;2022-07-21T15:47:38;21.40;67.40
37456;DHT22;23316;50.718;7.328;2022-07-21T15:50:07;21.30;67.70